< Typhoon 200304 2003 Season Typhoon 200306 >
Typhoon 200305 (NANGKA)
General InformationTrack Information on Google MapsDetailed Wind InformationList of All Images || NewsDisaster Info.WeblogResourceGoogle EarthGE AnimationAtom FeedGeoJSON
Detalied Best Track (Time Zone = UTC)
Year Month Day Hour Lat. Long. Pressure (hPa) Wind (kt) Class Image Chart
2003 5 30 00 16.8 118.8 1002 0 2 Image Chart
2003 5 30 06 16.7 118.5 1000 0 2 Image Chart
2003 5 30 12 16.6 118.0 1000 0 2 Image Chart
2003 5 30 18 16.5 117.6 1000 0 2 Image Chart
2003 5 31 00 16.7 117.2 1000 0 2 Image Chart
2003 5 31 06 16.8 117.0 998 0 2 Image Chart
2003 5 31 12 16.9 116.7 998 0 2 Image Chart
2003 5 31 18 17.1 116.5 998 0 2 Image Chart
2003 6 1 00 17.4 117.6 996 35 3 Image Chart
2003 6 1 06 17.8 117.9 994 40 3 Image Chart
2003 6 1 12 18.4 118.2 990 45 3 Image Chart
2003 6 1 18 19.5 118.7 985 50 4 Image Chart
2003 6 2 00 20.5 119.2 985 50 4 Image Chart
2003 6 2 06 20.7 119.8 985 50 4 Image Chart
2003 6 2 12 21.3 121.6 990 50 4 Image Chart
2003 6 2 18 22.3 123.3 992 45 3 Image Chart
2003 6 3 00 22.7 124.9 994 40 3 Image Chart
2003 6 3 06 23.7 127.5 994 35 3 Image Chart
2003 6 3 12 25.7 130.4 994 0 2 Image Chart
2003 6 3 18 27.6 132.5 994 0 2 Image Chart
2003 6 4 00 29.1 135.5 994 0 6 Image Chart
2003 6 4 06 30.3 136.9 996 0 6 Image Chart
2003 6 4 12 31.5 139.4 996 0 6 Image Chart
2003 6 4 18 33.1 141.8 998 0 6 Image Chart
2003 6 5 00 35.3 144.9 1000 0 6 Image Chart
2003 6 5 06 36.2 146.2 1000 0 6 Image Chart
2003 6 5 12 37.8 149.0 1000 0 6 Image Chart
2003 6 5 18 38.4 151.2 1000 0 6 Image Chart
2003 6 6 00 39.5 152.9 1006 0 6 Image Chart
2003 6 6 06 39.9 154.2 1006 0 6 Image Chart
2003 6 6 12 40.3 155.9 1008 0 6 Image Chart
2003 6 6 18 40.3 157.0 1008 0 6 Image Chart
2003 6 7 00 40.2 158.4 1012 0 6 Image Chart
2003 6 7 06 40.1 159.9 1012 0 6 Image Chart
2003 6 7 12 40.3 162.6 1012 0 6 Image Chart
Japan Meteorological Agency Best Track Data | Correction Date : 2004-02-17
< Typhoon 200304 2003 Season Typhoon 200306 >

Help